Time;durP1;ratioP1;P1;durP2;ratioP2;P2;SDS_P1;SDS_P2;PMS_P1;PMS_P2;Temp;Humidity;BMP_temperature;BMP_pressure;BME280_temperature;BME280_humidity;BME280_pressure;Samples;Min_cycle;Max_cycle;Signal;HPM_P1;HPM_P2
2022/03/03 00:02:13;;;;;;;;;;;;;;;4.98;45.12;101586.97;5004495;28;19925;-78
2022/03/03 00:04:39;;;;;;;;;;;;;;;5.17;46.33;101577.81;5006336;28;19987;-77
2022/03/03 00:07:05;;;;;;;;;;;;;;;4.83;46.55;101576.44;5008176;28;20361;-78
2022/03/03 00:09:30;;;;;;;;;;;;;;;4.70;47.08;101583.09;5005244;28;19961;-78
2022/03/03 00:11:55;;;;;;;;;;;;;;;4.99;47.06;101583.56;5008066;28;19979;-78
2022/03/03 00:14:20;;;;;;;;;;;;;;;4.94;46.32;101580.03;5007014;28;20325;-78
2022/03/03 00:16:46;;;;;;;;;;;;;;;4.85;46.90;101580.78;5020656;28;19921;-78
2022/03/03 00:19:11;;;;;;;;;;;;;;;5.00;46.83;101580.13;5023019;28;19926;-79
2022/03/03 00:21:36;;;;;;;;;;;;;;;5.11;46.53;101588.03;5021609;28;19952;-79
2022/03/03 00:24:02;;;;;;;;;;;;;;;5.00;47.43;101581.88;5003598;28;20011;-78
2022/03/03 00:26:27;;;;;;;;;;;;;;;5.02;46.05;101573.31;5008012;28;20457;-78
2022/03/03 00:28:53;;;;;;;;;;;;;;;4.86;47.48;101571.34;5006476;28;19935;-78
2022/03/03 00:31:18;;;;;;;;;;;;;;;4.99;46.96;101577.53;5009335;28;19925;-79
2022/03/03 00:33:43;;;;;;;;;;;;;;;5.03;47.52;101569.88;5004912;28;19964;-79
2022/03/03 00:36:09;;;;;;;;;;;;;;;5.06;47.04;101579.38;5006286;28;19982;-78
2022/03/03 00:38:34;;;;;;;;;;;;;;;5.07;47.08;101571.66;5003540;28;19925;-78
2022/03/03 00:40:59;;;;;;;;;;;;;;;5.13;47.49;101574.31;5012275;28;19921;-78
2022/03/03 00:43:25;;;;;;;;;;;;;;;5.22;46.71;101571.88;5005671;28;19921;-78
2022/03/03 00:45:50;;;;;;;;;;;;;;;5.10;46.41;101571.69;5011319;28;19925;-78
2022/03/03 00:48:15;;;;;;;;;;;;;;;5.15;45.74;101570.03;5003730;28;19936;-78
2022/03/03 00:50:41;;;;;;;;;;;;;;;5.20;46.01;101576.16;5010065;28;20484;-78
2022/03/03 00:53:06;;;;;;;;;;;;;;;5.23;46.04;101576.19;5005306;28;20471;-78
2022/03/03 00:55:31;;;;;;;;;;;;;;;5.15;45.90;101582.91;5007415;28;19922;-79
2022/03/03 00:57:57;;;;;;;;;;;;;;;4.86;45.63;101579.94;5006936;28;19932;-78
2022/03/03 01:00:22;;;;;;;;;;;;;;;4.84;46.32;101573.03;5008983;28;20298;-78
2022/03/03 01:02:48;;;;;;;;;;;;;;;4.83;45.87;101577.31;5006438;28;19929;-78
2022/03/03 01:05:13;;;;;;;;;;;;;;;4.86;45.76;101574.78;5008977;28;19930;-77
2022/03/03 01:07:39;;;;;;;;;;;;;;;4.99;45.38;101574.97;5003444;28;19922;-78
2022/03/03 01:10:05;;;;;;;;;;;;;;;5.01;45.47;101571.56;5006208;28;20012;-78
2022/03/03 01:12:30;;;;;;;;;;;;;;;4.76;46.20;101566.91;5009029;28;19936;-78
2022/03/03 01:14:55;;;;;;;;;;;;;;;4.52;46.52;101563.94;5003719;28;20373;-78
2022/03/03 01:17:21;;;;;;;;;;;;;;;4.47;46.68;101563.00;5016238;28;19921;-78
2022/03/03 01:19:46;;;;;;;;;;;;;;;4.01;46.74;101563.88;5003831;28;20290;-78
2022/03/03 01:22:11;;;;;;;;;;;;;;;4.51;46.38;101562.22;5003934;28;20305;-78
2022/03/03 01:24:37;;;;;;;;;;;;;;;4.68;46.23;101553.91;5008777;28;20390;-77
2022/03/03 01:27:02;;;;;;;;;;;;;;;4.61;46.70;101557.25;5006855;28;19929;-77
2022/03/03 01:29:27;;;;;;;;;;;;;;;4.65;46.69;101550.41;5004831;28;19933;-78
2022/03/03 01:31:53;;;;;;;;;;;;;;;4.69;46.27;101545.34;5020365;28;19929;-78
2022/03/03 01:34:18;;;;;;;;;;;;;;;4.72;46.17;101547.09;5004115;28;19922;-78
2022/03/03 01:36:44;;;;;;;;;;;;;;;4.67;45.50;101541.88;5001466;28;19953;-78
2022/03/03 01:39:09;;;;;;;;;;;;;;;4.19;46.63;101546.25;5005798;28;20687;-78
2022/03/03 01:41:35;;;;;;;;;;;;;;;4.43;46.51;101538.06;5003414;28;19930;-78
2022/03/03 01:44:01;;;;;;;;;;;;;;;4.54;46.83;101537.41;5006544;28;20012;-78
2022/03/03 01:46:26;;;;;;;;;;;;;;;4.40;47.54;101538.91;4993876;28;19918;-78
2022/03/03 01:48:51;;;;;;;;;;;;;;;4.57;46.73;101531.44;5007482;28;19999;-77
2022/03/03 01:51:17;;;;;;;;;;;;;;;4.75;46.98;101530.00;5021730;28;20007;-77
2022/03/03 01:53:42;;;;;;;;;;;;;;;4.55;45.83;101526.28;5032971;28;20004;-79
2022/03/03 01:56:08;;;;;;;;;;;;;;;4.64;45.48;101531.56;5022711;28;19929;-78
2022/03/03 01:58:33;;;;;;;;;;;;;;;4.54;46.54;101531.38;5009477;28;19914;-77
2022/03/03 02:00:59;;;;;;;;;;;;;;;4.23;46.83;101530.88;4988235;28;19929;-78
2022/03/03 02:03:24;;;;;;;;;;;;;;;4.55;46.48;101522.84;5012704;28;19999;-78
2022/03/03 02:05:49;;;;;;;;;;;;;;;4.24;46.52;101521.47;5002688;28;20391;-78
2022/03/03 02:08:15;;;;;;;;;;;;;;;4.38;46.29;101512.25;5006546;28;19922;-77
2022/03/03 02:10:40;;;;;;;;;;;;;;;3.88;46.20;101518.22;5017456;28;19929;-77
2022/03/03 02:13:06;;;;;;;;;;;;;;;4.44;46.71;101511.50;5028641;28;19935;-77
2022/03/03 02:15:31;;;;;;;;;;;;;;;4.30;46.67;101516.41;5017084;28;19933;-77
2022/03/03 02:17:57;;;;;;;;;;;;;;;4.23;46.08;101509.44;5010456;28;20008;-78
2022/03/03 02:20:27;;;;;;;;;;;;;;;4.13;46.17;101512.72;5000134;28;20441;-77
2022/03/03 02:22:53;;;;;;;;;;;;;;;4.12;47.03;101513.53;5007115;28;19927;-77
2022/03/03 02:25:19;;;;;;;;;;;;;;;3.85;47.62;101518.16;5006404;28;19928;-77
2022/03/03 02:27:45;;;;;;;;;;;;;;;4.18;47.58;101514.53;5004921;28;20032;-78
2022/03/03 02:30:12;;;;;;;;;;;;;;;4.24;47.64;101518.91;4998983;28;19961;-78
2022/03/03 02:32:37;;;;;;;;;;;;;;;4.08;47.85;101509.22;5006333;28;20493;-78
2022/03/03 02:35:02;;;;;;;;;;;;;;;4.19;47.01;101503.41;5004861;28;19936;-78
2022/03/03 02:37:34;;;;;;;;;;;;;;;3.66;47.74;101506.69;5008311;28;20582;-78
2022/03/03 02:39:59;;;;;;;;;;;;;;;4.03;46.30;101498.78;4995816;28;20454;-78
2022/03/03 02:42:24;;;;;;;;;;;;;;;3.92;46.88;101505.47;5004761;28;19930;-78
2022/03/03 02:44:49;;;;;;;;;;;;;;;4.05;47.71;101499.72;5002752;28;19929;-77
2022/03/03 02:47:15;;;;;;;;;;;;;;;3.98;47.85;101497.00;5004094;28;19925;-78
2022/03/03 02:49:40;;;;;;;;;;;;;;;4.23;47.17;101492.31;5002913;28;19933;-78
2022/03/03 02:52:05;;;;;;;;;;;;;;;3.75;48.07;101489.72;5004220;28;19932;-79
2022/03/03 02:54:31;;;;;;;;;;;;;;;4.33;47.34;101489.06;5015068;28;19932;-79
2022/03/03 02:59:40;;;;;;;;;;;;;;;4.37;46.41;101482.25;5029031;28;20324;-78
2022/03/03 03:02:05;;;;;;;;;;;;;;;4.37;47.13;101492.53;5039767;28;19925;-78
2022/03/03 03:04:30;;;;;;;;;;;;;;;4.35;47.25;101486.50;5010245;28;19928;-78
2022/03/03 03:06:56;;;;;;;;;;;;;;;4.09;47.40;101485.22;5033284;28;19960;-78
2022/03/03 03:09:21;;;;;;;;;;;;;;;4.28;46.97;101474.41;5021657;28;20180;-77
2022/03/03 03:11:46;;;;;;;;;;;;;;;4.01;47.74;101474.78;5023158;28;19977;-78
2022/03/03 03:14:12;;;;;;;;;;;;;;;4.23;47.31;101478.56;5006931;28;19925;-78
2022/03/03 03:16:37;;;;;;;;;;;;;;;4.54;47.62;101475.66;5001933;28;20453;-78
2022/03/03 03:19:02;;;;;;;;;;;;;;;4.60;47.54;101472.31;5001927;28;19921;-78
2022/03/03 03:21:27;;;;;;;;;;;;;;;4.62;46.87;101476.63;5003020;28;19932;-78
2022/03/03 03:23:53;;;;;;;;;;;;;;;4.56;47.27;101473.09;5006382;28;19929;-77
2022/03/03 03:26:18;;;;;;;;;;;;;;;4.70;47.13;101477.59;5022800;28;19939;-77
2022/03/03 03:28:43;;;;;;;;;;;;;;;4.53;47.00;101479.06;5007160;28;20547;-77
2022/03/03 03:31:09;;;;;;;;;;;;;;;4.39;46.68;101480.56;5001841;28;20004;-78
2022/03/03 03:33:34;;;;;;;;;;;;;;;4.17;47.63;101484.50;5021999;28;20329;-78
2022/03/03 03:36:00;;;;;;;;;;;;;;;3.98;47.24;101487.56;5006926;28;19960;-79
2022/03/03 03:38:25;;;;;;;;;;;;;;;4.40;47.26;101489.16;5022705;28;20068;-78
2022/03/03 03:40:50;;;;;;;;;;;;;;;4.51;46.80;101485.91;5024787;28;19925;-78
2022/03/03 03:43:15;;;;;;;;;;;;;;;4.60;46.81;101475.75;5004192;28;20322;-78
2022/03/03 03:45:41;;;;;;;;;;;;;;;4.58;46.83;101480.00;5001170;28;19976;-78
2022/03/03 03:48:06;;;;;;;;;;;;;;;4.34;47.16;101479.63;4998402;28;19940;-77
2022/03/03 03:50:32;;;;;;;;;;;;;;;4.55;47.05;101484.25;5005265;28;20335;-77
2022/03/03 03:52:57;;;;;;;;;;;;;;;4.44;46.72;101478.91;5005385;28;20004;-78
2022/03/03 03:55:23;;;;;;;;;;;;;;;4.43;47.01;101481.47;5012420;28;20312;-79
2022/03/03 03:57:48;;;;;;;;;;;;;;;4.34;47.22;101483.09;5006711;28;20379;-77
2022/03/03 04:00:14;;;;;;;;;;;;;;;4.26;47.54;101482.06;5000238;28;19926;-77
2022/03/03 04:02:43;;;;;;;;;;;;;;;4.51;46.64;101479.88;5005469;28;19933;-77
2022/03/03 04:05:09;;;;;;;;;;;;;;;4.48;46.68;101474.69;5007367;28;19929;-77
2022/03/03 04:07:34;;;;;;;;;;;;;;;4.41;46.91;101470.28;5002851;28;19955;-78
2022/03/03 04:09:59;;;;;;;;;;;;;;;4.26;46.49;101464.06;5009293;28;19979;-78
2022/03/03 04:12:25;;;;;;;;;;;;;;;4.37;46.64;101474.53;5001151;28;19969;-78
2022/03/03 04:14:51;;;;;;;;;;;;;;;4.30;46.41;101468.44;5006008;28;19931;-78
2022/03/03 04:17:16;;;;;;;;;;;;;;;4.45;46.64;101470.38;5006503;28;20382;-78
2022/03/03 04:19:41;;;;;;;;;;;;;;;4.36;46.20;101462.50;5013518;28;19928;-78
2022/03/03 04:22:06;;;;;;;;;;;;;;;4.25;46.27;101456.34;5011530;28;19925;-78
2022/03/03 04:24:32;;;;;;;;;;;;;;;4.21;45.99;101457.13;4997186;28;20644;-78
2022/03/03 04:26:57;;;;;;;;;;;;;;;4.12;46.05;101456.97;5004016;28;20337;-78
2022/03/03 04:29:23;;;;;;;;;;;;;;;4.28;46.54;101454.69;5009821;28;20306;-77
2022/03/03 04:31:51;;;;;;;;;;;;;;;4.37;46.37;101453.97;5002132;28;20475;-77
2022/03/03 04:34:17;;;;;;;;;;;;;;;4.43;45.71;101445.47;5006491;28;19932;-77
2022/03/03 04:36:42;;;;;;;;;;;;;;;4.39;45.46;101451.41;5008779;28;21383;-77
2022/03/03 04:39:08;;;;;;;;;;;;;;;4.50;45.31;101443.00;4997598;28;20364;-77
2022/03/03 04:41:33;;;;;;;;;;;;;;;4.46;45.86;101446.38;5006172;28;21513;-77
2022/03/03 04:43:58;;;;;;;;;;;;;;;3.75;46.59;101452.91;5001879;28;19929;-77
2022/03/03 04:46:23;;;;;;;;;;;;;;;4.00;46.29;101449.91;5003791;28;19980;-78
2022/03/03 04:48:49;;;;;;;;;;;;;;;4.10;46.93;101451.81;5003595;28;19925;-78
2022/03/03 04:51:14;;;;;;;;;;;;;;;3.89;46.75;101448.88;5003978;28;19926;-78
2022/03/03 04:53:39;;;;;;;;;;;;;;;4.13;46.31;101451.88;5004581;28;20381;-78
2022/03/03 04:56:05;;;;;;;;;;;;;;;3.93;46.27;101442.91;5009808;28;19987;-77
2022/03/03 04:58:30;;;;;;;;;;;;;;;4.02;45.92;101437.94;5003477;28;20016;-78
2022/03/03 05:00:55;;;;;;;;;;;;;;;3.80;47.13;101435.84;5006692;28;19926;-78
2022/03/03 05:03:21;;;;;;;;;;;;;;;3.86;46.86;101435.09;5007409;28;19967;-78
2022/03/03 05:05:47;;;;;;;;;;;;;;;4.03;46.48;101426.81;5008464;28;20041;-77
2022/03/03 05:08:12;;;;;;;;;;;;;;;3.87;46.92;101431.69;5002802;28;19927;-77
2022/03/03 05:10:37;;;;;;;;;;;;;;;3.74;46.69;101426.34;5006294;28;19935;-77
2022/03/03 05:13:03;;;;;;;;;;;;;;;3.89;47.12;101424.88;5005692;28;20305;-77
2022/03/03 05:15:28;;;;;;;;;;;;;;;3.37;47.23;101421.38;5010523;28;20267;-77
2022/03/03 05:17:54;;;;;;;;;;;;;;;3.78;46.49;101414.41;5000832;28;19926;-77
2022/03/03 05:20:19;;;;;;;;;;;;;;;3.80;46.07;101407.59;5003747;28;19952;-77
2022/03/03 05:22:45;;;;;;;;;;;;;;;3.31;47.25;101405.00;5007177;28;19929;-77
2022/03/03 05:25:10;;;;;;;;;;;;;;;3.13;47.91;101411.50;5009529;28;19932;-77
2022/03/03 05:27:40;;;;;;;;;;;;;;;3.14;48.24;101414.94;5004670;28;19925;-79
2022/03/03 05:30:06;;;;;;;;;;;;;;;3.61;47.68;101416.69;5014056;28;20044;-79
2022/03/03 05:32:31;;;;;;;;;;;;;;;3.89;46.26;101412.88;5005003;28;20725;-79
2022/03/03 05:34:56;;;;;;;;;;;;;;;3.60;46.95;101419.22;5005252;28;19928;-79
2022/03/03 05:37:23;;;;;;;;;;;;;;;3.33;47.15;101416.16;5023035;28;19936;-79
2022/03/03 05:39:49;;;;;;;;;;;;;;;3.28;48.26;101423.75;5009024;28;19933;-78
2022/03/03 05:42:15;;;;;;;;;;;;;;;3.09;48.33;101421.69;5005284;28;20125;-78
2022/03/03 05:44:41;;;;;;;;;;;;;;;3.23;48.36;101421.13;5006684;28;20015;-79
2022/03/03 05:47:07;;;;;;;;;;;;;;;3.43;47.32;101418.91;5008187;28;19921;-78
2022/03/03 05:49:32;;;;;;;;;;;;;;;3.60;47.12;101422.69;5011890;28;19925;-78
2022/03/03 05:51:58;;;;;;;;;;;;;;;3.78;47.24;101422.97;5004710;28;20374;-77
2022/03/03 05:54:23;;;;;;;;;;;;;;;3.84;46.67;101422.22;5023908;28;19964;-78
2022/03/03 05:56:52;;;;;;;;;;;;;;;3.41;46.36;101420.59;5006801;28;19929;-78
2022/03/03 05:59:21;;;;;;;;;;;;;;;3.10;47.38;101421.72;5009241;28;20004;-77
2022/03/03 06:01:46;;;;;;;;;;;;;;;3.65;47.97;101418.47;5004517;28;19921;-77
2022/03/03 06:04:13;;;;;;;;;;;;;;;3.71;46.54;101423.72;5044298;28;19995;-78
2022/03/03 06:06:44;;;;;;;;;;;;;;;3.68;47.10;101415.09;5022720;28;20391;-77
2022/03/03 06:09:11;;;;;;;;;;;;;;;3.87;46.50;101419.72;5011792;28;20461;-77
2022/03/03 06:11:51;;;;;;;;;;;;;;;3.70;46.30;101415.97;5012280;28;19929;-78
2022/03/03 06:14:23;;;;;;;;;;;;;;;3.58;47.07;101415.75;5023450;28;19932;-77
2022/03/03 06:16:49;;;;;;;;;;;;;;;3.24;47.83;101409.16;5044420;28;19921;-79
2022/03/03 06:19:16;;;;;;;;;;;;;;;3.65;47.64;101409.91;5026238;28;19917;-79
2022/03/03 06:21:42;;;;;;;;;;;;;;;3.80;47.36;101412.72;5030946;28;19987;-79
2022/03/03 06:24:07;;;;;;;;;;;;;;;3.94;46.54;101415.50;5035149;28;19929;-79
2022/03/03 06:26:36;;;;;;;;;;;;;;;3.95;46.41;101412.97;5039920;28;19925;-79
2022/03/03 06:29:02;;;;;;;;;;;;;;;3.99;46.54;101411.34;5027442;28;19970;-78
2022/03/03 06:31:27;;;;;;;;;;;;;;;3.67;46.75;101416.78;5027146;28;19922;-78
2022/03/03 06:33:53;;;;;;;;;;;;;;;3.54;46.95;101414.84;5026297;28;19936;-78
2022/03/03 06:36:18;;;;;;;;;;;;;;;3.15;47.44;101419.25;5022893;28;19972;-78
2022/03/03 06:38:43;;;;;;;;;;;;;;;3.34;47.55;101421.31;5040596;28;20477;-78
2022/03/03 06:41:09;;;;;;;;;;;;;;;3.38;47.84;101423.09;5023347;28;19920;-78
2022/03/03 06:43:35;;;;;;;;;;;;;;;3.72;47.13;101410.00;5028733;28;20393;-77
2022/03/03 06:46:01;;;;;;;;;;;;;;;3.78;46.48;101402.41;5030169;28;20374;-77
2022/03/03 06:48:26;;;;;;;;;;;;;;;3.50;47.26;101405.34;5029328;28;19944;-77
2022/03/03 06:50:53;;;;;;;;;;;;;;;3.54;47.76;101406.28;5025236;28;20035;-78
2022/03/03 06:53:20;;;;;;;;;;;;;;;3.12;49.02;101404.66;5023245;28;19929;-79
2022/03/03 06:55:49;;;;;;;;;;;;;;;3.66;47.41;101404.75;5028460;28;19944;-79
2022/03/03 06:58:16;;;;;;;;;;;;;;;3.67;47.15;101401.38;5025603;28;19921;-79
2022/03/03 07:00:46;;;;;;;;;;;;;;;3.54;47.70;101398.56;5020759;28;19925;-79
2022/03/03 07:03:11;;;;;;;;;;;;;;;3.71;48.20;101413.44;5027978;28;20600;-79
2022/03/03 07:05:36;;;;;;;;;;;;;;;3.75;48.05;101406.66;5030522;28;20396;-79
2022/03/03 07:08:02;;;;;;;;;;;;;;;3.76;47.79;101416.06;5022436;28;19925;-79
2022/03/03 07:10:27;;;;;;;;;;;;;;;3.74;47.50;101410.06;5024405;28;20032;-79
2022/03/03 07:12:55;;;;;;;;;;;;;;;3.84;47.22;101417.09;5025816;28;19940;-79
2022/03/03 07:15:21;;;;;;;;;;;;;;;3.84;47.40;101413.66;5021837;28;19986;-79
2022/03/03 07:17:51;;;;;;;;;;;;;;;3.95;47.23;101415.56;5026157;28;20490;-79
2022/03/03 07:20:18;;;;;;;;;;;;;;;3.90;47.68;101419.72;5026294;28;19925;-78
2022/03/03 07:22:54;;;;;;;;;;;;;;;3.73;48.14;101419.47;5027372;28;20397;-78
2022/03/03 07:25:21;;;;;;;;;;;;;;;4.01;47.57;101407.94;5022683;28;19987;-78
2022/03/03 07:27:47;;;;;;;;;;;;;;;3.96;47.74;101406.16;5032695;28;19983;-78
2022/03/03 07:30:15;;;;;;;;;;;;;;;3.66;48.23;101409.06;5027114;28;19929;-78
2022/03/03 07:32:46;;;;;;;;;;;;;;;3.83;48.87;101409.34;5019878;28;19960;-78
2022/03/03 07:35:14;;;;;;;;;;;;;;;3.74;48.65;101407.50;5022011;28;19924;-78
2022/03/03 07:38:02;;;;;;;;;;;;;;;3.98;49.63;101414.72;5021658;28;19933;-79
2022/03/03 07:40:28;;;;;;;;;;;;;;;4.06;50.24;101419.19;5025037;28;19931;-79
2022/03/03 07:42:55;;;;;;;;;;;;;;;4.15;50.08;101413.31;5038055;28;19931;-79
2022/03/03 07:45:20;;;;;;;;;;;;;;;4.22;49.55;101412.59;5026684;28;20008;-79
2022/03/03 07:47:47;;;;;;;;;;;;;;;4.30;49.75;101409.28;5022951;28;20016;-79
2022/03/03 07:50:13;;;;;;;;;;;;;;;4.35;49.59;101414.47;5018569;28;20523;-79
2022/03/03 07:52:38;;;;;;;;;;;;;;;4.27;49.71;101406.66;5039170;28;19924;-78
2022/03/03 07:55:04;;;;;;;;;;;;;;;4.48;49.60;101413.81;5027052;28;19961;-78
2022/03/03 07:57:40;;;;;;;;;;;;;;;4.35;50.01;101405.06;5024153;28;20428;-77
2022/03/03 08:00:06;;;;;;;;;;;;;;;4.43;49.62;101415.47;5027089;28;19925;-77
2022/03/03 08:02:33;;;;;;;;;;;;;;;4.65;49.87;101422.63;5026711;28;19947;-77
2022/03/03 08:04:59;;;;;;;;;;;;;;;4.45;49.87;101420.63;5020993;28;19925;-78
2022/03/03 08:07:26;;;;;;;;;;;;;;;4.57;49.91;101426.81;5021980;28;20409;-78
2022/03/03 08:09:57;;;;;;;;;;;;;;;4.65;50.06;101434.63;5028477;28;19964;-79
2022/03/03 08:12:23;;;;;;;;;;;;;;;4.58;49.92;101428.56;5025712;28;19921;-79
2022/03/03 08:14:49;;;;;;;;;;;;;;;4.63;49.51;101434.63;5024815;28;19931;-79
2022/03/03 08:17:15;;;;;;;;;;;;;;;4.83;49.60;101429.72;5038923;28;19925;-78
2022/03/03 08:19:43;;;;;;;;;;;;;;;4.63;50.09;101431.16;5023530;28;19928;-80
2022/03/03 08:22:09;;;;;;;;;;;;;;;4.81;49.71;101423.69;5020361;28;19937;-79
2022/03/03 08:24:35;;;;;;;;;;;;;;;4.74;51.01;101429.59;5027003;28;20334;-79
2022/03/03 08:27:03;;;;;;;;;;;;;;;4.69;50.28;101433.84;5018399;28;19925;-79
2022/03/03 08:29:28;;;;;;;;;;;;;;;4.73;49.46;101441.59;5020718;28;20380;-79
2022/03/03 08:31:54;;;;;;;;;;;;;;;4.76;49.62;101438.22;5025714;28;19921;-79
2022/03/03 08:34:20;;;;;;;;;;;;;;;4.69;49.64;101438.97;5020250;28;20459;-79
2022/03/03 08:36:49;;;;;;;;;;;;;;;4.76;49.44;101438.22;5021699;28;19920;-79
2022/03/03 08:39:16;;;;;;;;;;;;;;;4.80;48.15;101443.41;5022969;28;19932;-79
2022/03/03 08:41:42;;;;;;;;;;;;;;;4.81;48.05;101442.59;5019703;28;19960;-79
2022/03/03 08:44:08;;;;;;;;;;;;;;;4.99;48.07;101439.38;5034679;28;19948;-79
2022/03/03 08:46:34;;;;;;;;;;;;;;;5.04;47.60;101431.69;5017424;28;20430;-79
2022/03/03 08:49:00;;;;;;;;;;;;;;;5.02;47.51;101433.41;5022416;28;19929;-79
2022/03/03 08:51:27;;;;;;;;;;;;;;;5.02;48.00;101438.56;5032089;28;19925;-79
2022/03/03 08:53:52;;;;;;;;;;;;;;;5.13;46.65;101439.53;5026995;28;19932;-79
2022/03/03 08:56:18;;;;;;;;;;;;;;;5.17;48.04;101431.88;5025154;28;20383;-79
2022/03/03 08:58:43;;;;;;;;;;;;;;;5.45;46.31;101423.59;5028008;28;20408;-79
2022/03/03 09:01:09;;;;;;;;;;;;;;;5.37;45.25;101424.34;5022105;28;19925;-79
2022/03/03 09:03:34;;;;;;;;;;;;;;;5.46;46.26;101429.63;5028235;28;20078;-79
2022/03/03 09:06:01;;;;;;;;;;;;;;;5.34;47.08;101430.34;5040375;28;19929;-79
2022/03/03 09:08:26;;;;;;;;;;;;;;;5.48;45.46;101418.47;5027450;28;20380;-79
2022/03/03 09:10:51;;;;;;;;;;;;;;;5.55;45.12;101418.53;5031844;28;19977;-79
2022/03/03 09:13:17;;;;;;;;;;;;;;;5.56;45.14;101425.41;5028555;28;19931;-79
2022/03/03 09:15:43;;;;;;;;;;;;;;;5.59;45.57;101425.44;5031341;28;20418;-79
2022/03/03 09:18:08;;;;;;;;;;;;;;;5.60;46.22;101429.75;5024204;28;20550;-77
2022/03/03 09:20:34;;;;;;;;;;;;;;;5.66;46.66;101443.56;5034360;28;19924;-77
2022/03/03 09:22:59;;;;;;;;;;;;;;;5.51;47.34;101433.09;5026754;28;19987;-77
2022/03/03 09:25:24;;;;;;;;;;;;;;;5.75;46.66;101430.75;5028019;28;19927;-77
2022/03/03 09:27:50;;;;;;;;;;;;;;;5.78;46.17;101424.75;5028202;28;19933;-77
2022/03/03 09:30:15;;;;;;;;;;;;;;;5.78;46.30;101414.44;5025399;28;19929;-77
2022/03/03 09:32:41;;;;;;;;;;;;;;;5.77;47.86;101421.31;5028833;28;19929;-78
2022/03/03 09:35:07;;;;;;;;;;;;;;;5.72;46.87;101424.69;5022857;28;20012;-78
2022/03/03 09:37:32;;;;;;;;;;;;;;;5.73;45.44;101416.13;5028842;28;19929;-79
2022/03/03 09:39:57;;;;;;;;;;;;;;;5.96;45.79;101418.06;5025588;28;19990;-79
2022/03/03 09:42:23;;;;;;;;;;;;;;;5.95;45.01;101412.91;5025592;28;20366;-79
2022/03/03 09:44:48;;;;;;;;;;;;;;;6.12;45.85;101411.31;5026545;28;20314;-79
2022/03/03 09:47:15;;;;;;;;;;;;;;;6.15;45.62;101401.00;5027141;28;19932;-79
2022/03/03 09:49:40;;;;;;;;;;;;;;;5.90;46.65;101401.66;5023821;28;19952;-79
2022/03/03 09:52:16;;;;;;;;;;;;;;;5.93;46.27;101394.81;5009216;28;19925;-79
2022/03/03 09:54:43;;;;;;;;;;;;;;;6.11;44.43;101391.50;5021182;28;20402;-79
2022/03/03 09:57:08;;;;;;;;;;;;;;;6.18;44.46;101395.00;5012458;28;19925;-79
2022/03/03 09:59:34;;;;;;;;;;;;;;;6.38;43.67;101386.53;5009578;28;19928;-79
2022/03/03 10:02:03;;;;;;;;;;;;;;;6.18;46.27;101389.84;5011597;28;20412;-79
2022/03/03 10:04:29;;;;;;;;;;;;;;;6.26;46.05;101391.63;5041709;28;19914;-79
2022/03/03 10:06:54;;;;;;;;;;;;;;;6.23;45.97;101386.44;5004442;28;19991;-77
2022/03/03 10:09:19;;;;;;;;;;;;;;;6.24;46.68;101387.31;5009302;28;19972;-77
2022/03/03 10:11:48;;;;;;;;;;;;;;;6.30;45.96;101385.63;5005521;28;19922;-77
2022/03/03 10:14:14;;;;;;;;;;;;;;;6.34;46.43;101373.59;5009079;28;19925;-79
2022/03/03 10:16:46;;;;;;;;;;;;;;;6.47;44.69;101367.66;5016197;28;19928;-77
2022/03/03 10:19:12;;;;;;;;;;;;;;;6.48;45.21;101369.44;5006152;28;19961;-78
2022/03/03 10:21:38;;;;;;;;;;;;;;;6.60;43.66;101371.19;5027066;28;19956;-77
2022/03/03 10:24:16;;;;;;;;;;;;;;;6.55;44.62;101372.03;5006320;28;19926;-78
2022/03/03 10:26:44;;;;;;;;;;;;;;;6.59;43.71;101372.91;5010022;28;20068;-78
2022/03/03 10:29:20;;;;;;;;;;;;;;;6.75;44.04;101368.69;5003829;28;19921;-78
2022/03/03 10:31:47;;;;;;;;;;;;;;;6.91;42.62;101366.16;5010470;28;19917;-79
2022/03/03 10:34:17;;;;;;;;;;;;;;;6.96;43.36;101364.44;5007597;28;19917;-79
2022/03/03 10:36:42;;;;;;;;;;;;;;;6.95;42.36;101362.75;5006352;28;19936;-79
2022/03/03 10:39:07;;;;;;;;;;;;;;;6.82;44.03;101363.53;5007986;28;20019;-79
2022/03/03 10:41:33;;;;;;;;;;;;;;;6.91;42.28;101361.00;5006433;28;19925;-79
2022/03/03 10:44:01;;;;;;;;;;;;;;;7.11;41.99;101354.16;5003360;28;20493;-79
2022/03/03 10:46:26;;;;;;;;;;;;;;;7.33;40.87;101347.31;5007708;28;19921;-79
2022/03/03 10:48:52;;;;;;;;;;;;;;;7.26;40.71;101352.47;5006597;28;19929;-79
2022/03/03 10:51:19;;;;;;;;;;;;;;;7.14;41.67;101348.13;5005795;28;20085;-79
2022/03/03 10:53:44;;;;;;;;;;;;;;;7.27;41.07;101349.03;5005025;28;19934;-77
2022/03/03 10:56:19;;;;;;;;;;;;;;;7.31;39.76;101350.78;5008388;28;19983;-79
2022/03/03 10:58:55;;;;;;;;;;;;;;;7.37;38.88;101340.44;5012171;28;19936;-79
2022/03/03 11:01:25;;;;;;;;;;;;;;;7.38;39.88;101330.09;5002336;28;19929;-79
2022/03/03 11:03:51;;;;;;;;;;;;;;;7.78;40.58;101346.50;5001601;28;19961;-79
2022/03/03 11:06:28;;;;;;;;;;;;;;;7.65;37.62;101327.53;5003818;28;20000;-79
2022/03/03 11:08:54;;;;;;;;;;;;;;;7.64;37.70;101333.53;5006521;28;19922;-79
2022/03/03 11:11:20;;;;;;;;;;;;;;;7.61;37.84;101330.13;5000848;28;19929;-79
2022/03/03 11:13:49;;;;;;;;;;;;;;;7.63;38.76;101338.72;5030185;28;19927;-79
2022/03/03 11:16:19;;;;;;;;;;;;;;;7.73;38.78;101337.88;5002552;28;19924;-77
2022/03/03 11:18:44;;;;;;;;;;;;;;;7.85;37.84;101330.09;5003081;28;19941;-79
2022/03/03 11:21:10;;;;;;;;;;;;;;;7.76;36.64;101322.34;4999825;28;19926;-79
2022/03/03 11:23:41;;;;;;;;;;;;;;;7.69;37.64;101334.44;5008660;28;19932;-78
2022/03/03 11:26:07;;;;;;;;;;;;;;;7.68;38.99;101329.25;5002718;28;20272;-78
2022/03/03 11:28:34;;;;;;;;;;;;;;;7.95;35.62;101323.19;5008775;28;19979;-79
2022/03/03 11:31:19;;;;;;;;;;;;;;;7.89;36.26;101318.88;5007944;28;19925;-79
2022/03/03 11:33:44;;;;;;;;;;;;;;;7.89;37.63;101324.06;5005745;28;19971;-79
2022/03/03 11:36:18;;;;;;;;;;;;;;;7.89;39.14;101324.06;5018999;28;20393;-79
2022/03/03 11:38:45;;;;;;;;;;;;;;;7.93;39.16;101327.50;5018925;28;19936;-79
2022/03/03 11:41:10;;;;;;;;;;;;;;;7.94;38.74;101327.50;5005438;28;20378;-79
2022/03/03 11:43:54;;;;;;;;;;;;;;;8.02;38.58;101328.38;5000241;28;20062;-78
2022/03/03 11:46:38;;;;;;;;;;;;;;;7.70;39.02;101322.38;5008863;28;19932;-77
2022/03/03 11:49:31;;;;;;;;;;;;;;;7.78;37.88;101330.09;5002602;28;19959;-77
2022/03/03 11:52:07;;;;;;;;;;;;;;;7.80;39.55;101326.66;5005687;28;19971;-77
2022/03/03 11:54:33;;;;;;;;;;;;;;;7.75;40.79;101335.28;4999386;28;19926;-78
2022/03/03 11:57:04;;;;;;;;;;;;;;;7.81;40.19;101330.09;5001864;28;19976;-77
2022/03/03 11:59:39;;;;;;;;;;;;;;;7.69;40.71;101330.97;4996452;28;19969;-77
2022/03/03 12:02:05;;;;;;;;;;;;;;;7.70;42.39;101324.94;5005045;28;19936;-77
2022/03/03 12:04:31;;;;;;;;;;;;;;;7.76;40.49;101319.75;5009674;28;21232;-77
2022/03/03 12:06:56;;;;;;;;;;;;;;;7.84;40.78;101312.88;5002242;28;20005;-77
2022/03/03 12:09:25;;;;;;;;;;;;;;;7.97;41.00;101295.59;5003292;28;19929;-77
2022/03/03 12:12:05;;;;;;;;;;;;;;;7.99;40.39;101296.47;5003194;28;19935;-77
2022/03/03 12:14:50;;;;;;;;;;;;;;;7.84;41.74;101297.34;5008590;28;19925;-77
2022/03/03 12:17:33;;;;;;;;;;;;;;;7.98;39.90;101294.72;5007480;28;19936;-79
2022/03/03 12:20:17;;;;;;;;;;;;;;;7.96;39.14;101284.41;4999714;28;19913;-79
2022/03/03 12:22:58;;;;;;;;;;;;;;;7.94;38.42;101277.50;5009482;28;19956;-79
2022/03/03 12:25:42;;;;;;;;;;;;;;;7.97;39.75;101282.69;5011645;28;19921;-78
2022/03/03 12:28:15;;;;;;;;;;;;;;;8.02;38.20;101271.44;4999765;28;19925;-77
2022/03/03 12:30:44;;;;;;;;;;;;;;;8.03;40.21;101267.97;5001389;28;19983;-79
2022/03/03 12:33:18;;;;;;;;;;;;;;;8.09;38.19;101252.44;5004887;28;19933;-79
2022/03/03 12:35:45;;;;;;;;;;;;;;;8.03;38.11;101251.59;5003870;28;19922;-77
2022/03/03 12:38:10;;;;;;;;;;;;;;;8.04;38.92;101255.91;5007438;28;19960;-77
2022/03/03 12:40:36;;;;;;;;;;;;;;;8.15;38.00;101247.25;5006819;28;19960;-77
2022/03/03 12:43:02;;;;;;;;;;;;;;;8.13;39.01;101246.38;5005240;28;19925;-79
2022/03/03 12:45:30;;;;;;;;;;;;;;;8.17;36.57;101245.53;5008575;28;19932;-79
2022/03/03 12:47:56;;;;;;;;;;;;;;;8.08;36.85;101250.72;5006441;28;20638;-79
2022/03/03 12:50:26;;;;;;;;;;;;;;;8.14;38.14;101255.88;5008076;28;19932;-79